createdAt,value
2023-06-12T00:01:30.900Z,17.44
2023-06-12T00:03:59.444Z,17.43
2023-06-12T00:06:29.665Z,17.46
2023-06-12T00:08:58.192Z,17.41
2023-06-12T00:11:25.311Z,17.37
2023-06-12T00:13:52.436Z,17.32
2023-06-12T00:16:19.614Z,17.22
2023-06-12T00:18:48.214Z,17.13
2023-06-12T00:21:15.416Z,17.09
2023-06-12T00:23:42.973Z,17.06
2023-06-12T00:26:13.117Z,17.01
2023-06-12T00:28:44.437Z,16.98
2023-06-12T00:31:11.520Z,16.98
2023-06-12T00:33:39.167Z,16.95
2023-06-12T00:36:06.593Z,16.88
2023-06-12T00:38:36.201Z,16.84
2023-06-12T00:41:04.066Z,16.75
2023-06-12T00:43:31.267Z,16.83
2023-06-12T00:45:58.855Z,16.82
2023-06-12T00:48:26.048Z,16.77
2023-06-12T00:50:57.581Z,16.74
2023-06-12T00:53:25.254Z,16.78
2023-06-12T00:55:52.400Z,16.82
2023-06-12T00:58:19.666Z,16.91
2023-06-12T01:00:49.648Z,16.84
2023-06-12T01:03:18.636Z,16.75
2023-06-12T01:05:47.604Z,16.74
2023-06-12T01:08:35.683Z,16.73
2023-06-12T01:11:08.967Z,16.73
2023-06-12T01:13:36.922Z,16.78
2023-06-12T01:16:04.733Z,16.84
2023-06-12T01:18:34.051Z,16.82
2023-06-12T01:21:09.204Z,16.91
2023-06-12T01:23:57.020Z,16.87
2023-06-12T01:26:48.310Z,16.75
2023-06-12T01:29:29.804Z,16.70
2023-06-12T01:32:06.972Z,16.66
2023-06-12T01:34:55.069Z,16.57
2023-06-12T01:37:35.188Z,16.60
2023-06-12T01:40:10.066Z,16.61
2023-06-12T01:42:38.253Z,16.58
2023-06-12T01:45:06.401Z,16.55
2023-06-12T01:47:33.750Z,16.54
2023-06-12T01:50:01.317Z,16.54
2023-06-12T01:52:28.764Z,16.46
2023-06-12T01:54:59.532Z,16.55
2023-06-12T01:57:29.164Z,16.44
2023-06-12T01:59:56.922Z,16.31
2023-06-12T02:02:24.795Z,16.25
2023-06-12T02:04:52.086Z,16.23
2023-06-12T02:07:19.236Z,16.26
2023-06-12T02:09:47.966Z,16.34
2023-06-12T02:12:16.596Z,16.34
2023-06-12T02:14:44.125Z,16.36
2023-06-12T02:17:15.079Z,16.37
2023-06-12T02:19:42.394Z,16.33
2023-06-12T02:22:09.525Z,16.39
2023-06-12T02:24:37.073Z,16.38
2023-06-12T02:27:05.395Z,16.45
2023-06-12T02:29:32.791Z,16.39
2023-06-12T02:32:01.180Z,16.30
2023-06-12T02:34:28.762Z,16.30
2023-06-12T02:36:56.730Z,16.28
2023-06-12T02:39:28.424Z,16.23
2023-06-12T02:41:56.518Z,16.22
2023-06-12T02:44:23.731Z,16.25
2023-06-12T02:46:59.973Z,16.23
2023-06-12T02:49:36.888Z,16.22
2023-06-12T02:52:06.109Z,16.24
2023-06-12T02:54:34.069Z,16.25
2023-06-12T02:57:02.812Z,16.28
2023-06-12T02:59:30.115Z,16.32
2023-06-12T03:02:01.804Z,16.27
2023-06-12T03:04:49.150Z,16.31
2023-06-12T03:07:19.290Z,16.33
2023-06-12T03:09:46.540Z,16.39
2023-06-12T03:12:14.989Z,16.43
2023-06-12T03:14:43.779Z,16.53
2023-06-12T03:17:11.402Z,16.53
2023-06-12T03:19:39.084Z,16.48
2023-06-12T03:22:06.259Z,16.48
2023-06-12T03:24:33.370Z,16.47
2023-06-12T03:27:00.724Z,16.56
2023-06-12T03:29:30.403Z,16.60
2023-06-12T03:31:58.075Z,16.63
2023-06-12T03:34:28.443Z,16.68
2023-06-12T03:36:55.799Z,16.76
2023-06-12T03:39:26.952Z,16.84
2023-06-12T03:41:58.647Z,16.90
2023-06-12T03:44:57.855Z,16.98
2023-06-12T03:47:26.992Z,16.99
2023-06-12T03:49:55.257Z,17.04
2023-06-12T03:52:22.718Z,17.05
2023-06-12T03:54:52.351Z,17.10
2023-06-12T03:57:21.564Z,17.16
2023-06-12T03:59:48.799Z,17.21
2023-06-12T04:02:16.043Z,17.26
2023-06-12T04:04:43.476Z,17.28
2023-06-12T04:07:12.435Z,17.28
2023-06-12T04:09:39.853Z,17.32
2023-06-12T04:12:07.675Z,17.40
2023-06-12T04:14:35.405Z,17.47
2023-06-12T04:17:02.892Z,17.50
2023-06-12T04:19:30.124Z,17.57
2023-06-12T04:21:57.402Z,17.63
2023-06-12T04:24:25.892Z,17.67
2023-06-12T04:26:55.518Z,17.71
2023-06-12T04:29:22.763Z,17.77
2023-06-12T04:31:51.394Z,17.83
2023-06-12T04:34:18.612Z,17.86
2023-06-12T04:36:46.836Z,17.99
2023-06-12T04:39:15.408Z,18.07
2023-06-12T04:41:43.615Z,18.15
2023-06-12T04:44:10.766Z,18.20
2023-06-12T04:46:41.622Z,18.21
2023-06-12T04:49:10.373Z,18.19
2023-06-12T04:51:40.316Z,18.22
2023-06-12T04:54:10.332Z,18.23
2023-06-12T04:56:41.772Z,18.36
2023-06-12T04:59:10.124Z,18.36
2023-06-12T05:01:39.529Z,18.41
2023-06-12T05:04:08.466Z,18.46
2023-06-12T05:06:39.282Z,18.49
2023-06-12T05:09:10.123Z,18.52
2023-06-12T05:11:37.659Z,18.59
2023-06-12T05:14:06.505Z,18.61
2023-06-12T05:16:33.920Z,18.59
2023-06-12T05:19:01.558Z,18.63
2023-06-12T05:21:29.495Z,18.65
2023-06-12T05:23:57.177Z,18.73
2023-06-12T05:26:24.710Z,18.69
2023-06-12T05:28:52.646Z,18.68
2023-06-12T05:31:19.944Z,18.71
2023-06-12T05:33:47.587Z,18.78
2023-06-12T05:36:16.600Z,18.88
2023-06-12T05:38:47.584Z,18.96
2023-06-12T05:41:16.889Z,19.08
2023-06-12T05:43:47.445Z,19.23
2023-06-12T05:46:14.895Z,19.34
2023-06-12T05:48:42.218Z,19.47
2023-06-12T05:51:09.540Z,19.58
2023-06-12T05:53:37.687Z,19.68
2023-06-12T05:56:06.812Z,19.73
2023-06-12T05:58:35.524Z,19.77
2023-06-12T06:01:04.001Z,19.76
2023-06-12T06:03:50.326Z,19.84
2023-06-12T06:06:18.271Z,19.90
2023-06-12T06:08:45.925Z,19.97
2023-06-12T06:11:13.918Z,20.05
2023-06-12T06:13:42.716Z,20.05
2023-06-12T06:16:12.261Z,20.11
2023-06-12T06:18:41.877Z,20.19
2023-06-12T06:21:09.328Z,20.34
2023-06-12T06:23:37.245Z,20.48
2023-06-12T06:26:05.352Z,20.65
2023-06-12T06:28:33.010Z,20.85
2023-06-12T06:31:01.127Z,21.03
2023-06-12T06:33:28.335Z,21.23
2023-06-12T06:35:56.442Z,21.34
2023-06-12T06:38:26.171Z,21.52
2023-06-12T06:40:54.046Z,21.72
2023-06-12T06:43:21.757Z,21.89
2023-06-12T06:45:53.973Z,21.96
2023-06-12T06:48:21.929Z,22.06
2023-06-12T06:50:49.004Z,22.16
2023-06-12T06:53:16.241Z,22.27
2023-06-12T06:55:45.119Z,22.40
2023-06-12T06:58:14.481Z,22.62
2023-06-12T07:00:42.161Z,22.71
2023-06-12T07:03:10.005Z,22.80
2023-06-12T07:05:38.681Z,22.97
2023-06-12T07:08:05.925Z,23.01
2023-06-12T07:10:36.160Z,23.23
2023-06-12T07:13:04.371Z,23.40
2023-06-12T07:15:43.843Z,23.62
2023-06-12T07:18:11.782Z,23.77
2023-06-12T07:20:38.949Z,24.03
2023-06-12T07:23:07.064Z,24.31
2023-06-12T07:25:36.287Z,24.43
2023-06-12T07:28:04.269Z,24.28
2023-06-12T07:30:32.110Z,24.29
2023-06-12T07:32:59.346Z,24.57
2023-06-12T07:35:26.663Z,24.62
2023-06-12T07:37:54.159Z,24.68
2023-06-12T07:40:21.724Z,24.91
2023-06-12T07:42:50.139Z,25.03
2023-06-12T07:45:19.132Z,25.23
2023-06-12T07:47:48.896Z,25.45
2023-06-12T07:50:16.978Z,25.49
2023-06-12T07:52:44.794Z,25.45
2023-06-12T07:55:12.186Z,25.52
2023-06-12T07:57:40.064Z,25.53
2023-06-12T08:00:08.918Z,25.62
2023-06-12T08:02:59.750Z,25.84
2023-06-12T08:05:36.033Z,25.81
2023-06-12T08:08:06.706Z,25.72
2023-06-12T08:10:35.603Z,25.61
2023-06-12T08:13:03.034Z,25.60
2023-06-12T08:15:30.698Z,25.69
2023-06-12T08:17:58.075Z,25.75
2023-06-12T08:20:25.311Z,25.81
2023-06-12T08:22:57.767Z,25.84
2023-06-12T08:25:27.168Z,25.94
2023-06-12T08:27:57.394Z,26.13
2023-06-12T08:30:25.371Z,26.30
2023-06-12T08:32:52.612Z,26.39
2023-06-12T08:35:21.599Z,26.43
2023-06-12T08:37:49.542Z,26.46
2023-06-12T08:40:17.294Z,26.40
2023-06-12T08:42:54.693Z,26.36
2023-06-12T08:45:24.935Z,26.18
2023-06-12T08:47:53.046Z,26.35
2023-06-12T08:50:21.375Z,26.45
2023-06-12T08:52:48.968Z,26.39
2023-06-12T08:55:17.321Z,26.61
2023-06-12T08:57:45.132Z,26.71
2023-06-12T09:00:16.805Z,26.81
2023-06-12T09:02:49.283Z,26.97
2023-06-12T09:05:21.345Z,27.03
2023-06-12T09:07:49.478Z,27.08
2023-06-12T09:10:16.688Z,27.07
2023-06-12T09:12:46.374Z,26.95
2023-06-12T09:15:18.616Z,26.97
2023-06-12T09:17:50.379Z,27.07
2023-06-12T09:20:40.780Z,27.24
2023-06-12T09:23:09.432Z,27.49
2023-06-12T09:25:47.212Z,27.53
2023-06-12T09:28:25.934Z,27.62
2023-06-12T09:30:55.356Z,27.69
2023-06-12T09:33:28.839Z,27.83
2023-06-12T09:35:56.234Z,27.99
2023-06-12T09:38:30.856Z,27.82
2023-06-12T09:40:59.353Z,27.92
2023-06-12T09:43:29.980Z,27.98
2023-06-12T09:46:00.793Z,28.18
2023-06-12T09:51:24.900Z,28.33
2023-06-12T09:53:57.102Z,28.35
2023-06-12T09:56:25.349Z,28.26
2023-06-12T09:58:54.732Z,28.41
2023-06-12T10:01:22.757Z,28.38
2023-06-12T10:03:54.601Z,28.20
2023-06-12T10:06:24.954Z,28.31
2023-06-12T10:08:54.675Z,28.42
2023-06-12T10:11:22.329Z,28.19
2023-06-12T10:13:49.393Z,28.01
2023-06-12T10:16:17.899Z,28.16
2023-06-12T10:18:45.299Z,28.17
2023-06-12T10:21:12.738Z,28.38
2023-06-12T10:23:40.783Z,28.43
2023-06-12T10:26:08.710Z,28.33
2023-06-12T10:28:37.228Z,28.22
2023-06-12T10:31:14.992Z,28.04
2023-06-12T10:34:08.159Z,28.06
2023-06-12T10:36:43.266Z,28.13
2023-06-12T10:39:21.134Z,28.22
2023-06-12T10:41:59.538Z,28.36
2023-06-12T10:44:38.312Z,28.39
2023-06-12T10:47:06.038Z,28.61
2023-06-12T10:50:03.242Z,28.67
2023-06-12T10:52:31.118Z,28.58
2023-06-12T10:55:14.019Z,28.32
2023-06-12T10:57:48.299Z,28.35
2023-06-12T11:00:18.271Z,28.40
2023-06-12T11:03:00.067Z,28.34
2023-06-12T11:05:29.127Z,28.47
2023-06-12T11:07:58.711Z,28.67
2023-06-12T11:10:28.018Z,28.72
2023-06-12T11:12:55.639Z,28.90
2023-06-12T11:15:23.603Z,28.79
2023-06-12T11:17:52.000Z,28.89
2023-06-12T11:20:24.189Z,28.95
2023-06-12T11:23:02.162Z,28.70
2023-06-12T11:25:42.780Z,28.64
2023-06-12T11:28:10.700Z,28.79
2023-06-12T11:30:43.612Z,28.93
2023-06-12T11:33:17.884Z,29.02
2023-06-12T11:35:50.374Z,29.22
2023-06-12T11:40:54.653Z,29.30
2023-06-12T11:43:24.563Z,29.29
2023-06-12T11:45:54.110Z,29.20
2023-06-12T11:50:53.703Z,28.80
2023-06-12T11:53:24.326Z,28.76
2023-06-12T11:58:34.771Z,28.61
2023-06-12T12:01:12.101Z,28.61
2023-06-12T12:03:41.970Z,28.58
2023-06-12T12:06:09.222Z,28.55
2023-06-12T12:08:36.847Z,28.62
2023-06-12T12:11:34.166Z,28.54
2023-06-12T12:14:03.530Z,28.44
2023-06-12T12:16:39.917Z,28.30
2023-06-12T12:19:20.945Z,28.22
2023-06-12T12:21:48.407Z,28.33
2023-06-12T12:24:15.637Z,28.47
2023-06-12T12:26:43.363Z,28.51
2023-06-12T12:29:11.811Z,28.47
2023-06-12T12:31:39.088Z,28.53
2023-06-12T12:34:06.597Z,28.61
2023-06-12T12:36:33.768Z,28.62
2023-06-12T12:39:01.061Z,28.63
2023-06-12T12:41:28.743Z,28.61
2023-06-12T12:43:56.100Z,28.47
2023-06-12T12:46:26.439Z,28.47
2023-06-12T12:48:53.844Z,28.41
2023-06-12T12:51:21.259Z,28.43
2023-06-12T12:53:48.467Z,28.45
2023-06-12T12:56:15.700Z,28.22
2023-06-12T12:58:44.068Z,28.19
2023-06-12T13:01:11.325Z,28.16
2023-06-12T13:03:39.898Z,28.16
2023-06-12T13:06:09.234Z,28.01
2023-06-12T13:08:38.202Z,27.95
2023-06-12T13:11:05.454Z,27.78
2023-06-12T13:13:34.044Z,27.81
2023-06-12T13:16:02.156Z,27.75
2023-06-12T13:18:29.487Z,27.70
2023-06-12T13:20:56.525Z,27.62
2023-06-12T13:23:23.751Z,27.54
2023-06-12T13:25:52.152Z,27.54
2023-06-12T13:28:19.402Z,27.60
2023-06-12T13:30:46.767Z,27.53
2023-06-12T13:33:14.544Z,27.49
2023-06-12T13:35:41.690Z,27.50
2023-06-12T13:38:08.837Z,27.47
2023-06-12T13:40:36.030Z,27.33
2023-06-12T13:43:03.451Z,27.11
2023-06-12T13:45:32.290Z,27.15
2023-06-12T13:48:04.422Z,27.21
2023-06-12T13:50:31.980Z,27.03
2023-06-12T13:52:59.113Z,26.93
2023-06-12T13:55:26.854Z,26.84
2023-06-12T13:57:56.518Z,26.90
2023-06-12T14:00:24.649Z,26.91
2023-06-12T14:02:53.203Z,26.91
2023-06-12T14:05:21.079Z,26.95
2023-06-12T14:07:49.283Z,26.93
2023-06-12T14:10:20.423Z,26.97
2023-06-12T14:12:48.026Z,26.94
2023-06-12T14:15:15.215Z,26.94
2023-06-12T14:17:42.598Z,26.83
2023-06-12T14:20:10.612Z,26.71
2023-06-12T14:22:38.096Z,26.57
2023-06-12T14:25:05.720Z,26.57
2023-06-12T14:27:34.771Z,26.55
2023-06-12T14:30:02.096Z,26.49
2023-06-12T14:32:29.400Z,26.46
2023-06-12T14:34:56.655Z,26.47
2023-06-12T14:37:23.914Z,26.52
2023-06-12T14:39:51.202Z,26.42
2023-06-12T14:42:18.409Z,26.29
2023-06-12T14:44:45.636Z,26.18
2023-06-12T14:47:13.716Z,26.11
2023-06-12T14:49:40.897Z,26.01
2023-06-12T14:52:20.171Z,25.99
2023-06-12T14:54:51.058Z,25.98
2023-06-12T14:57:18.454Z,26.00
2023-06-12T14:59:45.524Z,26.06
2023-06-12T15:02:12.635Z,26.03
2023-06-12T15:04:40.760Z,25.93
2023-06-12T15:07:07.901Z,25.78
2023-06-12T15:09:35.129Z,25.62
2023-06-12T15:12:02.294Z,25.61
2023-06-12T15:14:29.495Z,25.59
2023-06-12T15:16:56.912Z,25.59
2023-06-12T15:19:25.303Z,25.57
2023-06-12T15:21:52.483Z,25.59
2023-06-12T15:24:19.941Z,25.61
2023-06-12T15:26:47.152Z,25.65
2023-06-12T15:29:14.537Z,25.69
2023-06-12T15:31:41.605Z,25.65
2023-06-12T15:34:08.920Z,25.64
2023-06-12T15:36:36.775Z,25.58
2023-06-12T15:39:05.187Z,25.51
2023-06-12T15:41:32.300Z,25.53
2023-06-12T15:43:59.449Z,25.60
2023-06-12T15:46:26.833Z,25.62
2023-06-12T15:48:53.968Z,25.49
2023-06-12T15:51:21.060Z,25.47
2023-06-12T15:53:48.200Z,25.38
2023-06-12T15:56:15.891Z,25.31
2023-06-12T15:58:45.259Z,25.25
2023-06-12T16:01:12.551Z,25.23
2023-06-12T16:03:39.886Z,25.24
2023-06-12T16:06:07.370Z,25.16
2023-06-12T16:08:34.549Z,25.07
2023-06-12T16:11:02.159Z,24.97
2023-06-12T16:13:29.166Z,24.86
2023-06-12T16:15:56.419Z,24.75
2023-06-12T16:18:23.600Z,24.76
2023-06-12T16:20:50.780Z,24.75
2023-06-12T16:23:18.946Z,24.71
2023-06-12T16:25:46.411Z,24.67
2023-06-12T16:28:13.650Z,24.70
2023-06-12T16:30:40.838Z,24.73
2023-06-12T16:33:08.091Z,24.75
2023-06-12T16:35:35.376Z,24.69
2023-06-12T16:38:02.765Z,24.68
2023-06-12T16:40:29.998Z,24.68
2023-06-12T16:42:58.190Z,24.68
2023-06-12T16:45:25.722Z,24.69
2023-06-12T16:47:53.107Z,24.69
2023-06-12T16:50:21.150Z,24.62
2023-06-12T16:52:48.389Z,24.64
2023-06-12T16:55:16.264Z,24.57
2023-06-12T16:57:44.545Z,24.52
2023-06-12T17:00:13.032Z,24.43
2023-06-12T17:02:40.378Z,24.36
2023-06-12T17:05:08.542Z,24.36
2023-06-12T17:07:35.737Z,24.34
2023-06-12T17:10:03.218Z,24.40
2023-06-12T17:12:30.593Z,24.31
2023-06-12T17:14:57.892Z,24.29
2023-06-12T17:17:25.519Z,24.19
2023-06-12T17:19:52.856Z,24.11
2023-06-12T17:22:20.034Z,24.07
2023-06-12T17:24:47.464Z,23.99
2023-06-12T17:27:14.781Z,23.91
2023-06-12T17:29:42.172Z,23.80
2023-06-12T17:32:09.667Z,23.76
2023-06-12T17:34:37.982Z,23.67
2023-06-12T17:37:05.873Z,23.63
2023-06-12T17:39:33.017Z,23.62
2023-06-12T17:42:00.260Z,23.58
2023-06-12T17:44:28.532Z,23.57
2023-06-12T17:46:55.925Z,23.53
2023-06-12T17:49:23.239Z,23.49
2023-06-12T17:51:50.761Z,23.36
2023-06-12T17:54:18.131Z,23.36
2023-06-12T17:56:47.419Z,23.33
2023-06-12T17:59:14.779Z,23.27
2023-06-12T18:01:42.070Z,23.24
2023-06-12T18:04:09.470Z,23.15
2023-06-12T18:06:37.777Z,23.09
2023-06-12T18:09:06.138Z,23.09
2023-06-12T18:11:33.354Z,23.06
2023-06-12T18:14:00.814Z,23.03
2023-06-12T18:16:28.223Z,23.04
2023-06-12T18:18:55.619Z,22.99
2023-06-12T18:21:23.013Z,22.94
2023-06-12T18:23:51.472Z,22.87
2023-06-12T18:26:19.124Z,22.82
2023-06-12T18:28:46.461Z,22.77
2023-06-12T18:31:13.608Z,22.73
2023-06-12T18:33:40.755Z,22.68
2023-06-12T18:36:08.139Z,22.63
2023-06-12T18:38:35.510Z,22.62
2023-06-12T18:41:02.927Z,22.59
2023-06-12T18:43:30.081Z,22.54
2023-06-12T18:45:57.227Z,22.48
2023-06-12T18:48:24.392Z,22.44
2023-06-12T18:50:51.681Z,22.33
2023-06-12T18:53:18.948Z,22.22
2023-06-12T18:55:46.333Z,22.11
2023-06-12T18:58:13.702Z,22.05
2023-06-12T19:00:40.969Z,22.01
2023-06-12T19:03:09.010Z,21.94
2023-06-12T19:05:36.355Z,21.86
2023-06-12T19:08:03.464Z,21.75
2023-06-12T19:10:30.557Z,21.75
2023-06-12T19:12:57.712Z,21.61
2023-06-12T19:15:24.951Z,21.59
2023-06-12T19:17:54.717Z,21.55
2023-06-12T19:20:22.056Z,21.42
2023-06-12T19:22:49.338Z,21.43
2023-06-12T19:25:17.204Z,21.37
2023-06-12T19:27:44.717Z,21.31
2023-06-12T19:30:14.412Z,21.25
2023-06-12T19:32:45.602Z,21.22
2023-06-12T19:35:13.996Z,21.16
2023-06-12T19:37:41.491Z,21.11
2023-06-12T19:40:10.217Z,21.06
2023-06-12T19:42:37.507Z,21.00
2023-06-12T19:45:08.527Z,20.91
2023-06-12T19:47:37.823Z,20.85
2023-06-12T19:50:06.090Z,20.77
2023-06-12T19:52:34.448Z,20.69
2023-06-12T19:55:01.596Z,20.61
2023-06-12T19:57:28.856Z,20.58
2023-06-12T19:59:56.010Z,20.53
2023-06-12T20:02:23.250Z,20.49
2023-06-12T20:04:50.453Z,20.47
2023-06-12T20:07:17.751Z,20.46
2023-06-12T20:09:44.851Z,20.40
2023-06-12T20:12:12.779Z,20.40
2023-06-12T20:14:39.882Z,20.38
2023-06-12T20:17:07.103Z,20.35
2023-06-12T20:19:35.114Z,20.28
2023-06-12T20:22:02.437Z,20.26
2023-06-12T20:24:35.240Z,20.25
2023-06-12T20:27:02.972Z,20.23
2023-06-12T20:29:30.134Z,20.19
2023-06-12T20:31:57.428Z,20.11
2023-06-12T20:34:24.649Z,20.04
2023-06-12T20:36:51.942Z,19.95
2023-06-12T20:39:19.114Z,19.90
2023-06-12T20:41:46.203Z,19.83
2023-06-12T20:44:13.380Z,19.80
2023-06-12T20:46:40.582Z,19.78
2023-06-12T20:49:07.942Z,19.77
2023-06-12T20:51:35.372Z,19.73
2023-06-12T20:54:02.590Z,19.65
2023-06-12T20:56:30.800Z,19.65
2023-06-12T20:58:58.130Z,19.58
2023-06-12T21:01:25.795Z,19.48
2023-06-12T21:03:54.008Z,19.43
2023-06-12T21:06:22.505Z,19.38
2023-06-12T21:08:57.002Z,19.35
2023-06-12T21:11:37.807Z,19.29
2023-06-12T21:14:13.653Z,19.23
2023-06-12T21:16:41.168Z,19.16
2023-06-12T21:19:08.370Z,19.04
2023-06-12T21:21:35.896Z,18.97
2023-06-12T21:24:04.140Z,18.93
2023-06-12T21:26:31.482Z,18.87
2023-06-12T21:28:59.249Z,18.85
2023-06-12T21:31:32.469Z,18.76
2023-06-12T21:34:02.952Z,18.67
2023-06-12T21:36:32.743Z,18.58
2023-06-12T21:39:00.331Z,18.57
2023-06-12T21:41:27.964Z,18.49
2023-06-12T21:43:55.500Z,18.41
2023-06-12T21:46:23.308Z,18.38
2023-06-12T21:48:51.104Z,18.34
2023-06-12T21:51:18.385Z,18.34
2023-06-12T21:53:45.869Z,18.34
2023-06-12T21:56:13.172Z,18.30
2023-06-12T21:58:40.427Z,18.24
2023-06-12T22:01:07.790Z,18.21
2023-06-12T22:03:35.152Z,18.13
2023-06-12T22:06:02.620Z,18.09
2023-06-12T22:08:29.895Z,18.02
2023-06-12T22:10:57.200Z,17.97
2023-06-12T22:13:24.503Z,18.04
2023-06-12T22:15:52.528Z,18.01
2023-06-12T22:18:19.814Z,18.01
2023-06-12T22:20:47.175Z,17.93
2023-06-12T22:23:15.088Z,17.89
2023-06-12T22:25:42.940Z,17.73
2023-06-12T22:28:10.399Z,17.78
2023-06-12T22:30:56.267Z,17.77
2023-06-12T22:33:24.927Z,17.65
2023-06-12T22:35:52.206Z,17.52
2023-06-12T22:38:19.599Z,17.50
2023-06-12T22:40:46.843Z,17.46
2023-06-12T22:43:16.462Z,17.45
2023-06-12T22:45:44.607Z,17.40
2023-06-12T22:48:12.115Z,17.26
2023-06-12T22:50:39.795Z,17.28
2023-06-12T22:53:14.531Z,17.30
2023-06-12T22:55:42.849Z,17.19
2023-06-12T22:58:10.534Z,17.13
2023-06-12T23:00:37.862Z,17.07
2023-06-12T23:03:05.108Z,17.06
2023-06-12T23:05:33.072Z,17.02
2023-06-12T23:08:00.467Z,16.94
2023-06-12T23:10:27.841Z,16.82
2023-06-12T23:12:57.498Z,16.76
2023-06-12T23:15:24.920Z,16.70
2023-06-12T23:17:52.472Z,16.74
2023-06-12T23:20:21.054Z,16.59
2023-06-12T23:22:54.773Z,16.61
2023-06-12T23:25:23.491Z,16.63
2023-06-12T23:27:58.390Z,16.59
2023-06-12T23:30:27.021Z,16.61
2023-06-12T23:32:57.507Z,16.59
2023-06-12T23:35:24.899Z,16.45
2023-06-12T23:37:52.451Z,16.56
2023-06-12T23:40:19.804Z,16.57
2023-06-12T23:42:48.217Z,16.55
2023-06-12T23:45:16.128Z,16.48
2023-06-12T23:47:43.465Z,16.37
2023-06-12T23:50:11.268Z,16.34
2023-06-12T23:52:38.660Z,16.28
2023-06-12T23:55:06.595Z,16.23
2023-06-12T23:57:33.878Z,16.24
